Terminal Aerodrome Forecast
Issued by NWS Cleveland, OH

Home | Current Version | Previous Version | Graphics & Text | Print | Product List | Glossary On
Versions: 1 2 3 4 5 6 7 8 9 10 11 12 13 14 15 16 17 18 19 20 21 22 23 24 25 26
563
FTUS41 KCLE 251008 AAB
TAFERI
TAF AMD
KERI 251008Z 2510/2606 07008KT 5SM HZ OVC045
     FM251200 07005KT 5SM BR VCSH SCT006 OVC012
      TEMPO 2512/2516 5SM -SHRA BR BKN006 OVC012
     FM251800 07009KT 5SM -SHRA BR OVC025
     FM260000 07009KT 4SM BR OVC025=

USA.gov is the U.S. government's official web portal to all federal, state and local government web resources and services.